Time;durP1;ratioP1;P1;durP2;ratioP2;P2;SDS_P1;SDS_P2;PMS_P1;PMS_P2;Temp;Humidity;BMP_temperature;BMP_pressure;BME280_temperature;BME280_humidity;BME280_pressure;Samples;Min_cycle;Max_cycle;Signal;HPM_P1;HPM_P2
2023/06/03 00:05:26;;;;;;;4.55;2.53;;;;;;;;;;21004516;28;20052;-70
2023/06/03 00:15:27;;;;;;;8.18;3.22;;;;;;;;;;21003303;28;20043;-70
2023/06/03 00:25:28;;;;;;;4.63;2.95;;;;;;;;;;21002375;28;20508;-70
2023/06/03 00:35:29;;;;;;;3.97;2.58;;;;;;;;;;21001123;28;20055;-70
2023/06/03 00:45:30;;;;;;;4.97;2.40;;;;;;;;;;21000156;28;20044;-69
2023/06/03 00:55:32;;;;;;;5.55;3.30;;;;;;;;;;21000135;28;20045;-70
2023/06/03 01:05:35;;;;;;;3.33;2.00;;;;;;;;;;21000678;28;20493;-70
2023/06/03 01:15:37;;;;;;;3.35;2.17;;;;;;;;;;21000505;28;20123;-70
2023/06/03 01:25:41;;;;;;;3.25;2.20;;;;;;;;;;20998956;28;20115;-70
2023/06/03 01:35:42;;;;;;;5.97;2.42;;;;;;;;;;20998609;28;20044;-70
2023/06/03 01:45:44;;;;;;;5.15;2.30;;;;;;;;;;20998063;28;20048;-70
2023/06/03 01:55:46;;;;;;;4.55;2.50;;;;;;;;;;20996301;28;20060;-70
2023/06/03 02:05:47;;;;;;;6.40;3.25;;;;;;;;;;20996945;28;20048;-69
2023/06/03 02:15:48;;;;;;;5.80;2.88;;;;;;;;;;20996622;28;20045;-70
2023/06/03 02:25:49;;;;;;;4.03;2.55;;;;;;;;;;20997394;28;20048;-70
2023/06/03 02:35:50;;;;;;;3.28;2.63;;;;;;;;;;21012921;28;20041;-71
2023/06/03 02:45:52;;;;;;;4.40;2.75;;;;;;;;;;21011143;28;20485;-69
2023/06/03 02:55:53;;;;;;;4.68;2.83;;;;;;;;;;21008935;28;20048;-70
2023/06/03 03:05:54;;;;;;;4.10;2.60;;;;;;;;;;21009774;28;20052;-70
2023/06/03 03:15:55;;;;;;;3.90;2.83;;;;;;;;;;21009203;28;20045;-70
2023/06/03 03:25:57;;;;;;;4.50;2.53;;;;;;;;;;21008136;28;20052;-69
2023/06/03 03:36:08;;;;;;;4.93;2.30;;;;;;;;;;21007874;28;20485;-70
2023/06/03 03:46:10;;;;;;;5.15;2.50;;;;;;;;;;21006124;28;20045;-70
2023/06/03 03:56:12;;;;;;;5.15;2.92;;;;;;;;;;21005205;28;20044;-70
2023/06/03 04:06:14;;;;;;;3.42;2.17;;;;;;;;;;21006161;28;20386;-69
2023/06/03 04:16:34;;;;;;;4.22;2.60;;;;;;;;;;21006333;28;20067;-70
2023/06/03 04:26:36;;;;;;;4.22;2.67;;;;;;;;;;21004949;28;20060;-70
2023/06/03 04:36:37;;;;;;;8.50;5.32;;;;;;;;;;21003267;28;20052;-70
2023/06/03 04:46:39;;;;;;;5.40;2.78;;;;;;;;;;21002629;28;20461;-70
2023/06/03 04:56:42;;;;;;;7.28;3.38;;;;;;;;;;20999787;28;20041;-70
2023/06/03 05:06:43;;;;;;;5.60;3.42;;;;;;;;;;21000804;28;20057;-70
2023/06/03 05:16:44;;;;;;;8.27;4.20;;;;;;;;;;21000137;28;20048;-70
2023/06/03 05:26:46;;;;;;;9.27;4.95;;;;;;;;;;20997989;28;20057;-70
2023/06/03 05:36:47;;;;;;;7.03;5.20;;;;;;;;;;20998883;28;20048;-71
2023/06/03 05:46:48;;;;;;;4.82;3.28;;;;;;;;;;20998393;28;20041;-70
2023/06/03 05:56:49;;;;;;;5.38;3.17;;;;;;;;;;20997793;28;20037;-70
2023/06/03 06:06:50;;;;;;;6.40;3.78;;;;;;;;;;20996652;28;20732;-71
2023/06/03 06:16:52;;;;;;;5.38;3.25;;;;;;;;;;20998784;28;20505;-71
2023/06/03 06:26:53;;;;;;;7.55;3.63;;;;;;;;;;20996118;28;20128;-70
2023/06/03 06:36:54;;;;;;;6.32;3.40;;;;;;;;;;20996084;28;20486;-69
2023/06/03 06:46:56;;;;;;;6.72;4.07;;;;;;;;;;20995365;28;20037;-69
2023/06/03 06:56:57;;;;;;;10.80;3.40;;;;;;;;;;20994816;28;20422;-70
2023/06/03 07:06:58;;;;;;;6.28;4.00;;;;;;;;;;20993445;28;20049;-70
2023/06/03 07:17:00;;;;;;;8.20;4.63;;;;;;;;;;21004209;28;20500;-71
2023/06/03 07:27:01;;;;;;;10.05;5.00;;;;;;;;;;21007247;28;20056;-71
2023/06/03 07:37:03;;;;;;;10.73;5.38;;;;;;;;;;21006240;28;20044;-70
2023/06/03 07:47:04;;;;;;;7.72;5.00;;;;;;;;;;21007237;28;20044;-70
2023/06/03 07:57:05;;;;;;;11.23;6.30;;;;;;;;;;21005722;28;20056;-70
2023/06/03 08:07:07;;;;;;;9.45;7.03;;;;;;;;;;21004976;28;20554;-70
2023/06/03 08:17:11;;;;;;;8.88;5.47;;;;;;;;;;21002664;28;20044;-69
2023/06/03 08:27:12;;;;;;;7.45;5.85;;;;;;;;;;21001978;28;20387;-71
2023/06/03 08:37:13;;;;;;;8.23;4.82;;;;;;;;;;20990778;28;20525;-63
2023/06/03 08:47:23;;;;;;;10.75;4.32;;;;;;;;;;20974337;28;20440;-66
2023/06/03 08:57:25;;;;;;;8.98;4.13;;;;;;;;;;20991471;28;20470;-70
2023/06/03 09:07:27;;;;;;;7.65;3.60;;;;;;;;;;20999024;28;20489;-70
2023/06/03 09:17:29;;;;;;;5.50;3.42;;;;;;;;;;20999173;28;20051;-70
2023/06/03 09:27:30;;;;;;;4.90;3.13;;;;;;;;;;20998179;28;20207;-71
2023/06/03 09:37:32;;;;;;;4.45;2.72;;;;;;;;;;20996096;28;20173;-70
2023/06/03 09:47:38;;;;;;;4.25;3.00;;;;;;;;;;20996967;28;20115;-70
2023/06/03 09:57:39;;;;;;;4.57;2.75;;;;;;;;;;20997307;28;20067;-70
2023/06/03 10:07:49;;;;;;;6.05;2.40;;;;;;;;;;20995636;28;20048;-71
2023/06/03 10:17:50;;;;;;;5.95;2.40;;;;;;;;;;20996216;28;20048;-71
2023/06/03 10:27:51;;;;;;;5.03;2.47;;;;;;;;;;20995381;28;20102;-70
2023/06/03 10:37:53;;;;;;;4.85;2.65;;;;;;;;;;20995399;28;20036;-70
2023/06/03 10:47:59;;;;;;;4.05;2.40;;;;;;;;;;20997249;28;20047;-70
2023/06/03 10:58:04;;;;;;;5.00;2.55;;;;;;;;;;21010502;28;20040;-71
2023/06/03 11:08:05;;;;;;;5.82;2.20;;;;;;;;;;21008724;28;20080;-69
2023/06/03 11:18:17;;;;;;;5.65;2.53;;;;;;;;;;21008784;28;20044;-70
2023/06/03 11:28:29;;;;;;;5.60;3.67;;;;;;;;;;21008023;28;20088;-70
2023/06/03 11:38:48;;;;;;;5.63;3.58;;;;;;;;;;21008077;28;20471;-69
2023/06/03 11:48:50;;;;;;;4.25;2.80;;;;;;;;;;21007441;28;20489;-70
2023/06/03 11:58:54;;;;;;;5.95;2.90;;;;;;;;;;21006055;28;20048;-70
2023/06/03 12:08:56;;;;;;;5.68;3.33;;;;;;;;;;20988459;28;20059;-70
2023/06/03 12:18:57;;;;;;;8.45;4.45;;;;;;;;;;20977436;28;20397;-66
2023/06/03 12:29:06;;;;;;;29.85;16.50;;;;;;;;;;21002922;28;20517;-67
2023/06/03 12:39:07;;;;;;;8.40;4.68;;;;;;;;;;20994875;28;20076;-67
2023/06/03 12:49:15;;;;;;;11.27;6.20;;;;;;;;;;20992496;28;20049;-65
2023/06/03 12:59:16;;;;;;;5.53;3.15;;;;;;;;;;20998153;28;20044;-68
2023/06/03 13:09:17;;;;;;;5.70;3.88;;;;;;;;;;21001099;28;20485;-69
2023/06/03 13:19:18;;;;;;;5.90;3.00;;;;;;;;;;20999440;28;20044;-61
2023/06/03 13:29:19;;;;;;;7.10;4.50;;;;;;;;;;20998133;28;20526;-65
2023/06/03 13:39:24;;;;;;;4.60;3.28;;;;;;;;;;20998317;28;20504;-65
2023/06/03 13:49:25;;;;;;;7.47;4.10;;;;;;;;;;20997937;28;20119;-66
2023/06/03 13:59:26;;;;;;;5.18;2.72;;;;;;;;;;20996534;28;20502;-65
2023/06/03 14:09:28;;;;;;;3.85;2.50;;;;;;;;;;20995826;28;20059;-66
2023/06/03 14:19:30;;;;;;;5.07;2.85;;;;;;;;;;20995935;28;20052;-65
2023/06/03 14:29:31;;;;;;;21.83;14.32;;;;;;;;;;21009254;28;20540;-65
2023/06/03 14:39:32;;;;;;;4.95;2.75;;;;;;;;;;21012847;28;20044;-65
2023/06/03 14:49:33;;;;;;;4.38;2.80;;;;;;;;;;21011948;28;20048;-66
2023/06/03 14:59:35;;;;;;;3.95;2.55;;;;;;;;;;21008007;28;20051;-66
2023/06/03 15:09:36;;;;;;;4.10;2.97;;;;;;;;;;21007504;28;20057;-64
2023/06/03 15:19:37;;;;;;;7.05;2.97;;;;;;;;;;21006868;28;20106;-65
2023/06/03 15:29:38;;;;;;;3.80;2.40;;;;;;;;;;21005478;28;20142;-65
2023/06/03 15:39:39;;;;;;;4.80;2.53;;;;;;;;;;21003739;28;20040;-65
2023/06/03 15:49:40;;;;;;;4.40;2.00;;;;;;;;;;21004536;28;20056;-65
2023/06/03 15:59:42;;;;;;;4.63;3.17;;;;;;;;;;21004569;28;20045;-65
2023/06/03 16:09:43;;;;;;;3.70;2.35;;;;;;;;;;21003082;28;20127;-65
2023/06/03 16:19:44;;;;;;;3.70;2.22;;;;;;;;;;21003324;28;20098;-65
2023/06/03 16:29:45;;;;;;;5.35;2.55;;;;;;;;;;21002397;28;20075;-66
2023/06/03 16:39:46;;;;;;;4.38;2.78;;;;;;;;;;21002434;28;20079;-66
2023/06/03 16:49:48;;;;;;;2.92;2.25;;;;;;;;;;21000485;28;20485;-65
2023/06/03 16:59:49;;;;;;;3.83;2.40;;;;;;;;;;21000162;28;20049;-66
2023/06/03 17:09:50;;;;;;;3.38;2.05;;;;;;;;;;20998474;28;20053;-66
2023/06/03 17:19:51;;;;;;;3.17;2.22;;;;;;;;;;21000042;28;20049;-67
2023/06/03 17:29:52;;;;;;;4.60;2.65;;;;;;;;;;20998351;28;20519;-66
2023/06/03 17:39:53;;;;;;;4.28;2.30;;;;;;;;;;20998860;28;20076;-65
2023/06/03 17:49:54;;;;;;;5.50;2.33;;;;;;;;;;20998395;28;20484;-66
2023/06/03 17:59:57;;;;;;;4.00;2.58;;;;;;;;;;20997346;28;20464;-66
2023/06/03 18:09:58;;;;;;;5.18;1.83;;;;;;;;;;20996533;28;20123;-65
2023/06/03 18:19:59;;;;;;;6.72;2.22;;;;;;;;;;20996621;28;20492;-67
2023/06/03 18:30:00;;;;;;;3.70;1.83;;;;;;;;;;20996122;28;20045;-66
2023/06/03 18:40:01;;;;;;;3.72;2.13;;;;;;;;;;20995880;28;20116;-66
2023/06/03 18:50:02;;;;;;;7.30;2.60;;;;;;;;;;20993620;28;20063;-65
2023/06/03 19:00:04;;;;;;;5.72;3.03;;;;;;;;;;20994822;28;20121;-64
2023/06/03 19:10:06;;;;;;;6.40;2.47;;;;;;;;;;20999341;28;20070;-65
2023/06/03 19:20:07;;;;;;;4.50;2.97;;;;;;;;;;21009504;28;20485;-65
2023/06/03 19:30:08;;;;;;;7.53;3.65;;;;;;;;;;21008208;28;20044;-65
2023/06/03 19:40:10;;;;;;;7.95;4.47;;;;;;;;;;21007987;28;20045;-66
2023/06/03 19:50:11;;;;;;;6.32;3.40;;;;;;;;;;21004560;28;20127;-66
2023/06/03 20:00:13;;;;;;;6.68;4.15;;;;;;;;;;21005552;28;20398;-65
2023/06/03 20:10:14;;;;;;;7.45;3.90;;;;;;;;;;21003453;28;20083;-66
2023/06/03 20:20:18;;;;;;;9.13;6.22;;;;;;;;;;21003854;28;20045;-65
2023/06/03 20:30:20;;;;;;;7.28;3.60;;;;;;;;;;21003523;28;20456;-65
2023/06/03 20:40:21;;;;;;;6.00;3.47;;;;;;;;;;21003308;28;20049;-66
2023/06/03 20:50:22;;;;;;;7.13;3.72;;;;;;;;;;21001962;28;20033;-65
2023/06/03 21:00:23;;;;;;;6.38;3.33;;;;;;;;;;21000785;28;20181;-65
2023/06/03 21:10:25;;;;;;;4.70;3.38;;;;;;;;;;20998044;28;20040;-67
2023/06/03 21:20:26;;;;;;;4.50;3.17;;;;;;;;;;20998986;28;20132;-67
2023/06/03 21:30:27;;;;;;;4.57;3.00;;;;;;;;;;20997427;28;20131;-67
2023/06/03 21:40:28;;;;;;;4.65;2.83;;;;;;;;;;20998781;28;20123;-66
2023/06/03 21:50:30;;;;;;;5.40;3.00;;;;;;;;;;20998125;28;20048;-66
2023/06/03 22:00:32;;;;;;;6.15;2.78;;;;;;;;;;20995026;28;20094;-67
2023/06/03 22:10:33;;;;;;;5.00;2.97;;;;;;;;;;20996956;28;20127;-66
2023/06/03 22:20:34;;;;;;;4.40;2.80;;;;;;;;;;20996655;28;20055;-66
2023/06/03 22:30:35;;;;;;;5.95;3.30;;;;;;;;;;20995385;28;20060;-66
2023/06/03 22:40:37;;;;;;;5.63;3.15;;;;;;;;;;20996016;28;20049;-67
2023/06/03 22:50:38;;;;;;;6.35;2.88;;;;;;;;;;21009870;28;20085;-67
2023/06/03 23:00:39;;;;;;;6.38;2.80;;;;;;;;;;21011301;28;20076;-66
2023/06/03 23:10:40;;;;;;;5.75;2.63;;;;;;;;;;21010105;28;20461;-67
2023/06/03 23:20:41;;;;;;;4.35;3.25;;;;;;;;;;21008482;28;20555;-67
2023/06/03 23:30:42;;;;;;;6.10;2.92;;;;;;;;;;21007287;28;20056;-67
2023/06/03 23:40:43;;;;;;;4.78;2.90;;;;;;;;;;21008310;28;20047;-66
2023/06/03 23:50:44;;;;;;;3.85;2.70;;;;;;;;;;21007324;28;20037;-66
